Dorking, United Kingdom
Current Conditions -  °F | °C
As of 8:20 AM on Monday 26 Jan 2015 (Local Time) from EGKK Reporting Station
Broken Clouds Broken Clouds  
Wind Chill:   Ceiling: 1500
Heat Index:   Visibility: 6mi
Dew Point:   Wind: 12mph
Humidity: 93%   Direction: 260°W
Pressure: 30.18"   Gusts: NA
Location:  51.23°N, 0.33°W
Report Text: EGKK 260820Z 26010KT 9999 SCT011 BKN015 09/08 Q1022
Loading
Personal Weather Stations






























Interactive Weather Map New forecast layout! Learn more

10-Day Weather Forecast

Advertisements
Track Severe Weather on mobile